Time;durP1;ratioP1;P1;durP2;ratioP2;P2;SDS_P1;SDS_P2;PMS_P1;PMS_P2;Temp;Humidity;BMP_temperature;BMP_pressure;BME280_temperature;BME280_humidity;BME280_pressure;Samples;Min_cycle;Max_cycle;Signal;HPM_P1;HPM_P2
2023/09/08 00:02:27;;;;;;;11.82;8.25;;;20.40;99.90;;;;;;4976534;28;20065;-82
2023/09/08 00:04:53;;;;;;;10.02;7.97;;;20.30;99.90;;;;;;4981936;28;20708;-82
2023/09/08 00:07:19;;;;;;;11.13;7.82;;;20.30;99.90;;;;;;4996473;28;20043;-82
2023/09/08 00:09:45;;;;;;;12.80;8.43;;;20.20;99.90;;;;;;4988614;28;20048;-82
2023/09/08 00:12:11;;;;;;;9.50;8.45;;;20.10;99.90;;;;;;4979380;28;20324;-82
2023/09/08 00:14:36;;;;;;;10.32;8.73;;;20.20;99.90;;;;;;4982260;28;20050;-82
2023/09/08 00:17:02;;;;;;;11.13;8.20;;;20.10;99.90;;;;;;4976705;28;20038;-82
2023/09/08 00:19:28;;;;;;;12.23;9.30;;;20.00;99.90;;;;;;4995440;28;20040;-82
2023/09/08 00:21:54;;;;;;;10.35;8.38;;;20.00;99.90;;;;;;4966703;28;20084;-82
2023/09/08 00:24:19;;;;;;;13.27;9.52;;;19.90;99.90;;;;;;4987169;28;20046;-82
2023/09/08 00:26:45;;;;;;;10.35;8.20;;;19.90;99.90;;;;;;4990925;28;20096;-82
2023/09/08 00:29:11;;;;;;;12.55;10.13;;;19.80;99.90;;;;;;4962095;28;20047;-82
2023/09/08 00:31:36;;;;;;;11.40;9.82;;;19.80;99.90;;;;;;4982965;28;20917;-82
2023/09/08 00:34:02;;;;;;;11.55;9.27;;;19.80;99.90;;;;;;4978927;28;20488;-82
2023/09/08 00:36:28;;;;;;;12.25;9.93;;;19.60;99.90;;;;;;4981664;28;20046;-82
2023/09/08 00:38:53;;;;;;;10.57;8.63;;;19.70;99.90;;;;;;4985554;28;20532;-82
2023/09/08 00:41:19;;;;;;;12.50;9.57;;;19.60;99.90;;;;;;4976645;28;20062;-82
2023/09/08 00:43:45;;;;;;;11.05;9.70;;;19.60;99.90;;;;;;4980889;28;20042;-82
2023/09/08 00:46:11;;;;;;;10.45;9.02;;;19.60;99.90;;;;;;4980387;28;20089;-82
2023/09/08 00:48:37;;;;;;;13.57;10.57;;;19.60;99.90;;;;;;4986647;28;20046;-82
2023/09/08 00:51:05;;;;;;;14.25;11.13;;;19.60;99.90;;;;;;4978421;28;20365;-82
2023/09/08 00:53:31;;;;;;;13.82;11.35;;;19.50;99.90;;;;;;4976738;28;20080;-82
2023/09/08 00:55:59;;;;;;;10.90;9.40;;;19.50;99.90;;;;;;4977345;28;20071;-82
2023/09/08 00:58:25;;;;;;;13.55;10.43;;;19.40;99.90;;;;;;4988860;28;20050;-83
2023/09/08 01:00:50;;;;;;;12.75;10.00;;;19.40;99.90;;;;;;4984305;28;20528;-82
2023/09/08 01:03:16;;;;;;;14.15;11.45;;;19.40;99.90;;;;;;4973406;28;20050;-82
2023/09/08 01:05:43;;;;;;;11.68;9.85;;;19.40;99.90;;;;;;4980844;28;20065;-82
2023/09/08 01:08:10;;;;;;;12.23;10.82;;;19.30;99.90;;;;;;4974407;28;20149;-82
2023/09/08 01:10:37;;;;;;;12.60;10.48;;;19.30;99.90;;;;;;4981619;28;20359;-81
2023/09/08 01:13:03;;;;;;;14.27;10.52;;;19.30;99.90;;;;;;4980943;28;20042;-81
2023/09/08 01:15:28;;;;;;;14.60;10.55;;;19.20;99.90;;;;;;4986535;28;20121;-82
2023/09/08 01:17:54;;;;;;;15.38;11.15;;;19.20;99.90;;;;;;4981286;28;20134;-82
2023/09/08 01:20:27;;;;;;;12.45;10.73;;;19.20;99.90;;;;;;4997650;28;20492;-81
2023/09/08 01:23:14;;;;;;;12.60;10.73;;;19.20;99.90;;;;;;4961921;28;20385;-81
2023/09/08 01:25:56;;;;;;;14.23;10.57;;;19.10;99.90;;;;;;4985018;28;20038;-82
2023/09/08 01:28:23;;;;;;;12.10;9.85;;;19.10;99.90;;;;;;4959577;28;20081;-81
2023/09/08 01:30:50;;;;;;;14.35;11.18;;;19.00;99.90;;;;;;4987262;28;20042;-82
2023/09/08 01:33:15;;;;;;;14.85;11.85;;;19.00;99.90;;;;;;4982074;28;21556;-82
2023/09/08 01:35:42;;;;;;;13.95;11.00;;;19.00;99.90;;;;;;4992072;28;20045;-82
2023/09/08 01:38:08;;;;;;;13.15;10.65;;;19.00;99.90;;;;;;4978423;28;20086;-81
2023/09/08 01:40:33;;;;;;;17.63;12.68;;;18.90;99.90;;;;;;4977164;28;20068;-81
2023/09/08 01:43:00;;;;;;;15.07;11.57;;;19.00;99.90;;;;;;4987104;28;20065;-81
2023/09/08 01:45:26;;;;;;;12.73;10.32;;;18.90;99.90;;;;;;4984296;28;20473;-81
2023/09/08 01:47:51;;;;;;;12.68;10.57;;;18.90;99.90;;;;;;4970563;28;20045;-82
2023/09/08 01:50:21;;;;;;;13.55;11.80;;;18.90;99.90;;;;;;4988284;28;20045;-81
2023/09/08 01:52:47;;;;;;;15.25;12.02;;;18.90;99.90;;;;;;4977829;28;20047;-81
2023/09/08 01:55:13;;;;;;;11.00;9.43;;;18.80;99.90;;;;;;4985091;28;20449;-81
2023/09/08 01:57:39;;;;;;;17.15;12.73;;;18.80;99.90;;;;;;4970803;28;20105;-82
2023/09/08 02:00:05;;;;;;;16.63;11.70;;;18.80;99.90;;;;;;4983313;28;20038;-82
2023/09/08 02:02:31;;;;;;;15.18;12.05;;;18.80;99.90;;;;;;4984967;28;20046;-82
2023/09/08 02:04:56;;;;;;;13.43;10.88;;;18.70;99.90;;;;;;4999103;28;20038;-82
2023/09/08 02:07:22;;;;;;;12.93;10.70;;;18.70;99.90;;;;;;4982994;28;20034;-82
2023/09/08 02:09:48;;;;;;;13.80;11.60;;;18.70;99.90;;;;;;4981209;28;20042;-82
2023/09/08 02:12:13;;;;;;;14.73;11.93;;;18.60;99.90;;;;;;4975821;28;20086;-82
2023/09/08 02:14:39;;;;;;;16.92;12.25;;;18.70;99.90;;;;;;4983672;28;20050;-82
2023/09/08 02:17:06;;;;;;;15.45;11.57;;;18.70;99.90;;;;;;4982857;28;20042;-82
2023/09/08 02:19:31;;;;;;;12.50;9.88;;;18.60;99.90;;;;;;4966001;28;20039;-82
2023/09/08 02:21:57;;;;;;;14.68;11.52;;;18.60;99.90;;;;;;4987628;28;20043;-82
2023/09/08 02:24:23;;;;;;;15.23;11.77;;;18.60;99.90;;;;;;4987785;28;20073;-82
2023/09/08 02:26:49;;;;;;;14.07;11.70;;;18.50;99.90;;;;;;4984079;28;20049;-82
2023/09/08 02:29:15;;;;;;;18.52;12.98;;;18.50;99.90;;;;;;4975351;28;20054;-82
2023/09/08 02:31:41;;;;;;;18.50;10.73;;;18.50;99.90;;;;;;4982357;28;20611;-82
2023/09/08 02:34:06;;;;;;;14.80;11.80;;;18.40;99.90;;;;;;4986474;28;20047;-82
2023/09/08 02:36:32;;;;;;;16.05;11.95;;;18.50;99.90;;;;;;4986965;28;20038;-82
2023/09/08 02:38:58;;;;;;;15.23;12.25;;;18.40;99.90;;;;;;4987547;28;20482;-82
2023/09/08 02:41:24;;;;;;;14.57;12.18;;;18.40;99.90;;;;;;4974191;28;20149;-82
2023/09/08 02:43:52;;;;;;;15.25;10.85;;;18.30;99.90;;;;;;4976553;28;20043;-82
2023/09/08 02:46:17;;;;;;;16.30;12.68;;;18.30;99.90;;;;;;4964806;28;20046;-82
2023/09/08 02:48:43;;;;;;;14.30;11.60;;;18.30;99.90;;;;;;4987243;28;20109;-82
2023/09/08 02:51:09;;;;;;;13.63;10.48;;;18.30;99.90;;;;;;4982173;28;20038;-82
2023/09/08 02:53:35;;;;;;;15.77;11.35;;;18.20;99.90;;;;;;4995153;28;20096;-82
2023/09/08 02:56:03;;;;;;;13.68;11.15;;;18.30;99.90;;;;;;4974092;28;20325;-82
2023/09/08 02:58:30;;;;;;;16.13;12.23;;;18.20;99.90;;;;;;4983848;28;20122;-82
2023/09/08 03:00:56;;;;;;;14.48;11.50;;;18.20;99.90;;;;;;4981358;28;20065;-82
2023/09/08 03:03:21;;;;;;;16.20;12.30;;;18.10;99.90;;;;;;4986369;28;20035;-81
2023/09/08 03:05:47;;;;;;;12.45;10.40;;;18.10;99.90;;;;;;4980738;28;20111;-81
2023/09/08 03:08:13;;;;;;;14.07;10.18;;;18.10;99.90;;;;;;4985480;28;20175;-81
2023/09/08 03:10:38;;;;;;;15.98;11.90;;;18.10;99.90;;;;;;4979291;28;20049;-82
2023/09/08 03:13:29;;;;;;;12.43;10.75;;;18.10;99.90;;;;;;4984800;28;20412;-82
2023/09/08 03:15:56;;;;;;;14.02;11.60;;;18.10;99.90;;;;;;4985517;28;20163;-82
2023/09/08 03:18:22;;;;;;;15.82;12.25;;;18.10;99.90;;;;;;4967786;28;20046;-81
2023/09/08 03:20:49;;;;;;;16.58;12.15;;;18.10;99.90;;;;;;4960155;28;20050;-82
2023/09/08 03:23:15;;;;;;;14.73;11.35;;;18.00;99.90;;;;;;4977246;28;20062;-82
2023/09/08 03:25:41;;;;;;;15.57;11.45;;;18.00;99.90;;;;;;4985693;28;20442;-82
2023/09/08 03:28:07;;;;;;;13.48;11.10;;;18.00;99.90;;;;;;4960934;28;20038;-81
2023/09/08 03:30:32;;;;;;;14.75;11.95;;;17.90;99.90;;;;;;4975535;28;20043;-82
2023/09/08 03:32:58;;;;;;;13.43;11.50;;;17.90;99.90;;;;;;4983076;28;20042;-82
2023/09/08 03:35:24;;;;;;;14.23;12.20;;;17.90;99.90;;;;;;4966313;28;20105;-82
2023/09/08 03:37:49;;;;;;;13.13;11.13;;;17.90;99.90;;;;;;4979131;28;20051;-82
2023/09/08 03:40:15;;;;;;;13.23;10.27;;;17.90;99.90;;;;;;4978283;28;20038;-82
2023/09/08 03:42:42;;;;;;;13.57;11.65;;;17.90;99.90;;;;;;4978098;28;20038;-82
2023/09/08 03:45:09;;;;;;;13.00;11.57;;;17.80;99.90;;;;;;4969745;28;20499;-82
2023/09/08 03:47:35;;;;;;;14.35;11.73;;;17.80;99.90;;;;;;4979393;28;20046;-82
2023/09/08 03:50:01;;;;;;;14.10;11.73;;;17.80;99.90;;;;;;4982102;28;20057;-82
2023/09/08 03:52:26;;;;;;;14.93;11.75;;;17.80;99.90;;;;;;4980893;28;20038;-82
2023/09/08 03:54:52;;;;;;;12.60;9.75;;;17.70;99.90;;;;;;4980096;28;20086;-82
2023/09/08 03:57:18;;;;;;;11.32;9.75;;;17.70;99.90;;;;;;4979386;28;20060;-82
2023/09/08 03:59:44;;;;;;;15.80;11.05;;;17.70;99.90;;;;;;4987670;28;20042;-82
2023/09/08 04:02:10;;;;;;;14.38;10.52;;;17.70;99.90;;;;;;4991425;28;20038;-82
2023/09/08 04:04:36;;;;;;;13.18;10.70;;;17.60;99.90;;;;;;4961759;28;20038;-82
2023/09/08 04:07:02;;;;;;;12.63;10.35;;;17.60;99.90;;;;;;4962399;28;20057;-82
2023/09/08 04:09:28;;;;;;;14.85;11.23;;;17.60;99.90;;;;;;4985254;28;20397;-82
2023/09/08 04:11:54;;;;;;;9.85;8.82;;;17.60;99.90;;;;;;4990892;28;20041;-82
2023/09/08 04:14:23;;;;;;;14.77;10.68;;;17.60;99.90;;;;;;5000913;28;20078;-82
2023/09/08 04:16:49;;;;;;;13.10;11.27;;;17.50;99.90;;;;;;4993761;28;20043;-82
2023/09/08 04:19:14;;;;;;;14.80;11.57;;;17.50;99.90;;;;;;4979053;28;20103;-82
2023/09/08 04:21:42;;;;;;;14.07;10.80;;;17.50;99.90;;;;;;4966674;28;20086;-82
2023/09/08 04:24:10;;;;;;;14.88;12.48;;;17.40;99.90;;;;;;4990212;28;20037;-82
2023/09/08 04:26:36;;;;;;;12.52;10.65;;;17.40;99.90;;;;;;4969090;28;20038;-82
2023/09/08 04:29:03;;;;;;;16.27;12.05;;;17.40;99.90;;;;;;4985796;28;20039;-82
2023/09/08 04:31:28;;;;;;;13.73;10.70;;;17.30;99.90;;;;;;4973827;28;20592;-82
2023/09/08 04:33:54;;;;;;;17.77;12.40;;;17.30;99.90;;;;;;4979733;28;20074;-83
2023/09/08 04:36:20;;;;;;;13.20;10.95;;;17.30;99.90;;;;;;4990536;28;20413;-82
2023/09/08 04:38:46;;;;;;;16.20;12.35;;;17.20;99.90;;;;;;4983965;28;20395;-83
2023/09/08 04:41:11;;;;;;;17.02;13.20;;;17.20;99.90;;;;;;4979365;28;20057;-83
2023/09/08 04:43:37;;;;;;;16.23;12.90;;;17.20;99.90;;;;;;4976245;28;20038;-82
2023/09/08 04:46:03;;;;;;;13.80;11.55;;;17.10;99.90;;;;;;4984128;28;20807;-82
2023/09/08 04:48:29;;;;;;;15.82;11.68;;;17.10;99.90;;;;;;4965943;28;20727;-82
2023/09/08 04:50:56;;;;;;;14.93;12.52;;;17.10;99.90;;;;;;4983761;28;20035;-83
2023/09/08 04:53:21;;;;;;;16.92;11.98;;;17.10;99.90;;;;;;4980054;28;20085;-82
2023/09/08 04:55:47;;;;;;;13.10;10.82;;;17.10;99.90;;;;;;4971338;28;20042;-83
2023/09/08 04:58:13;;;;;;;17.80;13.18;;;17.10;99.90;;;;;;4986832;28;20245;-83
2023/09/08 05:00:39;;;;;;;12.93;10.45;;;17.00;99.90;;;;;;4968456;28;20038;-82
2023/09/08 05:03:06;;;;;;;16.85;13.07;;;17.00;99.90;;;;;;4993225;28;20042;-83
2023/09/08 05:05:31;;;;;;;21.70;14.50;;;17.00;99.90;;;;;;4976002;28;20076;-82
2023/09/08 05:07:57;;;;;;;15.02;12.93;;;17.00;99.90;;;;;;4981339;28;20124;-82
2023/09/08 05:10:23;;;;;;;18.63;13.63;;;17.00;99.90;;;;;;5002470;28;20164;-82
2023/09/08 05:12:49;;;;;;;13.57;11.32;;;17.00;99.90;;;;;;4971295;28;20053;-83
2023/09/08 05:15:16;;;;;;;16.50;13.02;;;16.90;99.90;;;;;;4985212;28;20043;-82
2023/09/08 05:17:42;;;;;;;13.75;12.20;;;16.90;99.90;;;;;;4990294;28;20393;-82
2023/09/08 05:20:09;;;;;;;16.05;13.40;;;16.90;99.90;;;;;;4980713;28;20045;-83
2023/09/08 05:22:35;;;;;;;17.02;13.73;;;16.90;99.90;;;;;;4970795;28;20049;-82
2023/09/08 05:25:00;;;;;;;14.85;11.50;;;16.90;99.90;;;;;;4988634;28;20517;-84
2023/09/08 05:27:26;;;;;;;14.25;12.57;;;16.90;99.90;;;;;;4986994;28;20060;-83
2023/09/08 05:29:52;;;;;;;11.73;9.40;;;16.90;99.90;;;;;;4980273;28;20033;-83
2023/09/08 05:32:17;;;;;;;16.40;12.30;;;16.90;99.90;;;;;;4978958;28;20109;-83
2023/09/08 05:34:43;;;;;;;15.18;12.48;;;16.90;99.90;;;;;;5001089;28;20041;-83
2023/09/08 05:37:09;;;;;;;15.77;10.95;;;16.90;99.90;;;;;;4980199;28;20086;-83
2023/09/08 05:39:35;;;;;;;18.38;14.15;;;17.10;99.90;;;;;;4972490;28;20039;-83
2023/09/08 05:42:01;;;;;;;15.82;13.65;;;16.90;99.90;;;;;;4980147;28;20093;-83
2023/09/08 05:44:26;;;;;;;15.07;12.40;;;16.80;99.90;;;;;;4994390;28;20105;-82
2023/09/08 05:46:52;;;;;;;12.75;11.23;;;16.80;99.90;;;;;;4985280;28;20038;-82
2023/09/08 05:49:17;;;;;;;15.02;12.85;;;16.80;99.90;;;;;;4971181;28;20038;-84
2023/09/08 05:51:44;;;;;;;21.42;13.63;;;16.80;99.90;;;;;;4984380;28;20046;-84
2023/09/08 05:54:10;;;;;;;14.55;12.85;;;16.80;99.90;;;;;;4960306;28;20097;-83
2023/09/08 05:56:37;;;;;;;15.90;13.65;;;16.80;99.90;;;;;;4984196;28;20508;-84
2023/09/08 05:59:03;;;;;;;14.73;10.63;;;16.90;99.90;;;;;;4983191;28;20046;-84
2023/09/08 06:01:30;;;;;;;13.18;11.43;;;16.90;99.90;;;;;;4990858;28;20097;-83
2023/09/08 06:03:56;;;;;;;15.18;12.13;;;16.90;99.90;;;;;;4986713;28;20081;-84
2023/09/08 06:06:22;;;;;;;14.98;12.25;;;16.90;99.90;;;;;;4990628;28;20062;-83
2023/09/08 06:08:48;;;;;;;17.77;13.77;;;16.90;99.90;;;;;;4989177;28;20037;-84
2023/09/08 06:11:14;;;;;;;18.67;13.40;;;16.80;99.90;;;;;;4986357;28;20050;-82
2023/09/08 06:13:39;;;;;;;17.92;13.45;;;16.80;99.90;;;;;;4985933;28;20037;-85
2023/09/08 06:16:05;;;;;;;15.10;13.00;;;16.80;99.90;;;;;;5000351;28;20097;-82
2023/09/08 06:18:31;;;;;;;16.65;13.43;;;16.80;99.90;;;;;;4985901;28;20042;-81
2023/09/08 06:20:57;;;;;;;20.05;13.35;;;16.90;99.90;;;;;;4980706;28;20046;-81
2023/09/08 06:23:22;;;;;;;16.67;13.38;;;16.90;99.90;;;;;;4986276;28;20046;-82
2023/09/08 06:25:49;;;;;;;16.08;13.40;;;16.80;99.90;;;;;;4986150;28;20070;-82
2023/09/08 06:28:15;;;;;;;15.55;12.90;;;16.90;99.90;;;;;;4990058;28;20041;-82
2023/09/08 06:30:41;;;;;;;14.45;11.43;;;16.90;99.90;;;;;;4988588;28;20039;-82
2023/09/08 06:33:10;;;;;;;17.27;14.00;;;16.90;99.90;;;;;;4980025;28;20113;-82
2023/09/08 06:35:36;;;;;;;14.48;11.25;;;16.90;99.90;;;;;;4982787;28;20053;-81
2023/09/08 06:38:02;;;;;;;15.45;12.07;;;16.90;99.90;;;;;;4980228;28;20058;-81
2023/09/08 06:40:30;;;;;;;11.70;9.75;;;17.00;99.90;;;;;;4977676;28;20114;-82
2023/09/08 06:42:56;;;;;;;13.82;10.63;;;17.00;99.90;;;;;;4983501;28;20042;-82
2023/09/08 06:45:22;;;;;;;15.63;11.68;;;17.00;99.90;;;;;;4985190;28;20043;-81
2023/09/08 06:47:50;;;;;;;15.02;12.88;;;17.10;99.90;;;;;;4985029;28;20508;-81
2023/09/08 06:50:15;;;;;;;20.05;13.57;;;17.10;99.90;;;;;;4985086;28;20081;-82
2023/09/08 06:52:41;;;;;;;15.23;13.05;;;17.10;99.90;;;;;;4977634;28;20042;-82
2023/09/08 06:55:07;;;;;;;17.63;13.32;;;17.20;99.90;;;;;;4981188;28;20405;-81
2023/09/08 06:57:33;;;;;;;14.98;13.38;;;17.20;99.90;;;;;;4986027;28;20076;-82
2023/09/08 06:59:58;;;;;;;16.15;12.90;;;17.20;99.90;;;;;;4981530;28;20446;-81
2023/09/08 07:02:24;;;;;;;15.55;12.27;;;17.20;99.90;;;;;;4979512;28;20061;-84
2023/09/08 07:04:50;;;;;;;16.42;12.60;;;17.30;99.90;;;;;;4993613;28;20088;-84
2023/09/08 07:07:18;;;;;;;16.95;13.23;;;17.30;99.90;;;;;;4985564;28;20121;-84
2023/09/08 07:09:43;;;;;;;17.38;14.15;;;17.40;99.90;;;;;;4977510;28;20038;-84
2023/09/08 07:12:09;;;;;;;15.13;12.50;;;17.40;99.90;;;;;;4977608;28;20054;-84
2023/09/08 07:14:34;;;;;;;16.08;12.82;;;17.40;99.90;;;;;;4975539;28;20042;-84
2023/09/08 07:17:00;;;;;;;15.13;12.73;;;17.50;99.90;;;;;;4979047;28;20606;-83
2023/09/08 07:19:27;;;;;;;16.15;12.73;;;17.50;99.90;;;;;;4978610;28;20468;-84
2023/09/08 07:21:53;;;;;;;16.75;12.30;;;17.60;99.90;;;;;;4981334;28;20046;-84
2023/09/08 07:24:18;;;;;;;15.45;11.20;;;17.60;99.90;;;;;;4971346;28;20047;-84
2023/09/08 07:26:44;;;;;;;15.60;11.68;;;17.70;99.90;;;;;;4981878;28;20165;-84
2023/09/08 07:29:10;;;;;;;14.77;11.48;;;17.80;99.90;;;;;;4988918;28;20341;-84
2023/09/08 07:31:35;;;;;;;14.70;11.45;;;17.90;99.90;;;;;;4984265;28;20061;-84
2023/09/08 07:34:01;;;;;;;13.82;11.60;;;18.00;99.90;;;;;;4998501;28;20050;-84
2023/09/08 07:36:27;;;;;;;12.98;10.52;;;18.00;99.90;;;;;;4968885;28;20045;-84
2023/09/08 07:38:52;;;;;;;14.32;10.23;;;18.20;99.90;;;;;;4976460;28;20063;-84
2023/09/08 07:41:18;;;;;;;13.00;9.93;;;18.20;99.90;;;;;;4972977;28;20058;-85
2023/09/08 07:43:45;;;;;;;14.35;9.90;;;18.30;99.90;;;;;;4975375;28;20053;-84
2023/09/08 07:46:11;;;;;;;17.92;9.38;;;18.40;99.90;;;;;;4989090;28;20042;-84
2023/09/08 07:48:37;;;;;;;15.27;8.85;;;18.40;99.90;;;;;;4975384;28;20053;-84
2023/09/08 07:51:02;;;;;;;11.70;8.15;;;18.50;99.90;;;;;;4974116;28;20050;-84
2023/09/08 07:53:28;;;;;;;11.68;8.48;;;18.70;99.90;;;;;;4974676;28;20478;-84
2023/09/08 07:55:54;;;;;;;11.57;8.52;;;18.80;99.90;;;;;;4969474;28;20077;-85
2023/09/08 07:58:20;;;;;;;10.80;7.97;;;18.90;99.90;;;;;;4979347;28;20051;-85
2023/09/08 08:00:45;;;;;;;11.10;8.30;;;19.00;99.90;;;;;;4969396;28;20051;-85
2023/09/08 08:03:11;;;;;;;9.98;7.95;;;19.10;99.90;;;;;;4977535;28;20043;-84
2023/09/08 08:05:37;;;;;;;10.65;8.45;;;19.20;99.90;;;;;;4976689;28;20030;-84
2023/09/08 08:08:02;;;;;;;11.50;8.20;;;19.30;99.90;;;;;;4966290;28;20657;-84
2023/09/08 08:10:28;;;;;;;12.55;7.72;;;19.40;99.90;;;;;;4979107;28;20034;-85
2023/09/08 08:12:54;;;;;;;9.68;8.10;;;19.50;99.90;;;;;;4992883;28;20046;-84
2023/09/08 08:15:23;;;;;;;12.27;7.88;;;19.50;99.90;;;;;;4973820;28;20474;-85
2023/09/08 08:17:49;;;;;;;9.38;7.13;;;19.60;99.90;;;;;;4976143;28;20031;-85
2023/09/08 08:20:18;;;;;;;11.30;6.90;;;19.70;99.90;;;;;;4975764;28;20042;-85
2023/09/08 08:22:46;;;;;;;11.85;7.50;;;19.80;99.90;;;;;;4970950;28;20062;-85
2023/09/08 08:25:12;;;;;;;10.23;7.50;;;19.90;99.90;;;;;;4970524;28;20035;-84
2023/09/08 08:27:40;;;;;;;9.88;7.05;;;20.00;99.90;;;;;;4953545;28;20043;-84
2023/09/08 08:30:06;;;;;;;9.43;6.30;;;20.20;99.90;;;;;;4971859;28;20039;-85
2023/09/08 08:32:33;;;;;;;10.18;7.13;;;20.30;99.90;;;;;;4974828;28;20053;-85
2023/09/08 08:34:59;;;;;;;7.97;5.75;;;20.40;99.90;;;;;;4975590;28;20110;-85
2023/09/08 08:37:25;;;;;;;9.98;6.07;;;20.60;99.90;;;;;;4993748;28;20054;-85
2023/09/08 08:39:50;;;;;;;8.35;6.22;;;20.80;99.90;;;;;;4973797;28;20122;-85
2023/09/08 08:42:16;;;;;;;9.75;6.38;;;20.90;99.90;;;;;;4973359;28;20039;-84
2023/09/08 08:44:42;;;;;;;7.90;5.78;;;21.10;99.90;;;;;;4975831;28;20039;-85
2023/09/08 08:47:10;;;;;;;10.75;5.80;;;21.20;99.90;;;;;;4968403;28;20426;-85
2023/09/08 08:49:36;;;;;;;11.38;6.32;;;21.30;99.90;;;;;;4978425;28;20035;-85
2023/09/08 08:52:07;;;;;;;7.40;5.72;;;21.40;99.90;;;;;;4952782;28;20058;-85
2023/09/08 08:54:40;;;;;;;9.35;5.95;;;21.60;99.90;;;;;;4969902;28;20048;-85
2023/09/08 08:57:06;;;;;;;8.63;6.03;;;21.70;99.90;;;;;;4985408;28;20042;-85
2023/09/08 08:59:32;;;;;;;7.82;5.45;;;21.80;99.90;;;;;;4973491;28;20069;-85
2023/09/08 09:02:05;;;;;;;7.78;5.53;;;22.00;99.90;;;;;;4957763;28;20038;-85
2023/09/08 09:04:31;;;;;;;13.07;5.40;;;22.10;99.90;;;;;;4969176;28;20042;-85
2023/09/08 09:06:57;;;;;;;9.30;5.57;;;22.30;99.90;;;;;;4968055;28;20045;-85
2023/09/08 09:09:24;;;;;;;8.02;5.45;;;22.50;99.90;;;;;;4970777;28;20049;-85
2023/09/08 09:11:50;;;;;;;8.70;5.13;;;22.60;99.90;;;;;;4976056;28;20054;-85
2023/09/08 09:14:17;;;;;;;8.82;5.63;;;22.80;99.90;;;;;;4976451;28;20109;-85
2023/09/08 09:16:44;;;;;;;7.25;5.00;;;23.00;99.90;;;;;;4967607;28;20430;-85
2023/09/08 09:19:25;;;;;;;12.30;5.60;;;23.10;99.90;;;;;;4954850;28;20401;-85
2023/09/08 09:21:54;;;;;;;8.95;5.05;;;23.30;99.90;;;;;;4973790;28;20043;-85
2023/09/08 09:24:34;;;;;;;8.45;5.28;;;23.50;99.90;;;;;;4980631;28;20121;-86
2023/09/08 09:27:05;;;;;;;10.68;5.15;;;23.60;99.90;;;;;;4970225;28;20047;-85
2023/09/08 09:29:31;;;;;;;9.00;5.20;;;23.70;99.90;;;;;;4973693;28;20046;-85
2023/09/08 09:32:06;;;;;;;7.28;5.30;;;23.90;99.90;;;;;;4972661;28;20133;-85
2023/09/08 09:34:31;;;;;;;7.43;4.93;;;24.00;99.90;;;;;;4971601;28;20043;-85
2023/09/08 09:36:57;;;;;;;8.00;5.20;;;24.10;99.90;;;;;;4982521;28;20069;-85
2023/09/08 09:39:25;;;;;;;8.70;4.85;;;24.20;99.90;;;;;;4978767;28;20954;-86
2023/09/08 09:41:56;;;;;;;8.60;4.88;;;24.40;99.90;;;;;;4977406;28;20112;-86
2023/09/08 09:44:22;;;;;;;9.02;4.95;;;24.50;99.90;;;;;;4973045;28;20039;-85
2023/09/08 09:46:51;;;;;;;7.57;4.47;;;24.60;99.90;;;;;;4973533;28;20405;-85
2023/09/08 09:49:19;;;;;;;7.57;4.40;;;24.80;99.90;;;;;;4984522;28;20393;-85
2023/09/08 09:51:50;;;;;;;6.07;4.78;;;24.90;99.90;;;;;;4980513;28;20440;-85
2023/09/08 09:54:16;;;;;;;7.07;4.88;;;24.90;99.90;;;;;;4957295;28;20078;-85
2023/09/08 09:56:43;;;;;;;6.07;4.18;;;24.90;99.90;;;;;;4982395;28;20482;-85
2023/09/08 09:59:14;;;;;;;8.02;5.03;;;25.00;99.90;;;;;;4975469;28;20035;-85
2023/09/08 10:01:42;;;;;;;8.02;5.35;;;25.10;99.90;;;;;;4984750;28;20070;-85
2023/09/08 10:04:08;;;;;;;8.70;4.55;;;25.20;99.90;;;;;;4971417;28;20555;-85
2023/09/08 10:06:35;;;;;;;10.75;4.95;;;25.30;99.90;;;;;;4955308;28;20045;-85
2023/09/08 10:09:08;;;;;;;6.75;5.15;;;25.40;99.90;;;;;;4977790;28;20049;-85
2023/09/08 10:11:50;;;;;;;7.43;5.03;;;25.50;99.90;;;;;;4973877;28;20501;-85
2023/09/08 10:14:17;;;;;;;7.43;5.03;;;25.60;99.90;;;;;;4955949;28;20039;-85
2023/09/08 10:16:45;;;;;;;10.13;5.07;;;25.70;99.90;;;;;;4981494;28;20453;-86
2023/09/08 10:19:11;;;;;;;6.93;5.38;;;25.80;99.90;;;;;;4977899;28;20453;-83
2023/09/08 10:21:44;;;;;;;6.95;4.65;;;25.80;99.90;;;;;;4973941;28;20133;-84
2023/09/08 10:24:26;;;;;;;7.80;4.75;;;25.90;99.90;;;;;;4975428;28;20049;-84
2023/09/08 10:27:00;;;;;;;6.82;4.60;;;26.00;99.90;;;;;;4954380;28;20413;-84
2023/09/08 10:29:27;;;;;;;6.53;4.25;;;26.00;99.90;;;;;;4965769;28;20045;-84
2023/09/08 10:31:54;;;;;;;8.18;4.88;;;26.10;99.90;;;;;;4977256;28;20070;-83
2023/09/08 10:34:21;;;;;;;8.88;4.55;;;26.20;99.90;;;;;;4982225;28;20074;-83
2023/09/08 10:36:47;;;;;;;8.80;4.68;;;26.40;99.90;;;;;;4962066;28;20043;-83
2023/09/08 10:39:35;;;;;;;6.60;4.63;;;26.40;99.90;;;;;;4971272;28;20050;-84
2023/09/08 10:42:24;;;;;;;7.47;4.82;;;26.60;99.90;;;;;;4953263;28;20074;-83
2023/09/08 10:44:55;;;;;;;9.35;4.95;;;26.70;99.90;;;;;;4988839;28;20089;-84
2023/09/08 10:47:25;;;;;;;12.80;4.78;;;26.80;99.90;;;;;;4953735;28;20031;-84
2023/09/08 10:49:53;;;;;;;9.18;4.75;;;26.80;99.90;;;;;;4972455;28;20054;-83
2023/09/08 10:52:25;;;;;;;7.00;4.70;;;27.00;99.90;;;;;;4966436;28;20038;-84
2023/09/08 10:54:52;;;;;;;8.40;4.93;;;27.10;99.90;;;;;;4983541;28;20053;-83
2023/09/08 10:57:22;;;;;;;8.93;4.70;;;27.20;99.90;;;;;;4972874;28;20042;-83
2023/09/08 10:59:55;;;;;;;7.90;4.53;;;27.20;99.90;;;;;;4973293;28;20047;-84
2023/09/08 11:02:34;;;;;;;6.05;4.18;;;27.30;99.90;;;;;;4999087;28;20030;-83
2023/09/08 11:05:00;;;;;;;6.90;4.50;;;27.30;99.90;;;;;;5001854;28;20082;-83
2023/09/08 11:07:26;;;;;;;6.00;4.32;;;27.50;99.90;;;;;;4965074;28;20077;-83
2023/09/08 11:09:51;;;;;;;9.10;4.68;;;27.50;99.90;;;;;;4982472;28;20295;-83
2023/09/08 11:12:17;;;;;;;6.72;4.25;;;27.60;99.90;;;;;;4976073;28;20038;-84
2023/09/08 11:14:46;;;;;;;5.90;4.15;;;27.60;99.90;;;;;;4988029;28;20420;-84
2023/09/08 11:17:11;;;;;;;6.45;4.25;;;27.70;99.90;;;;;;4964587;28;20181;-84
2023/09/08 11:19:48;;;;;;;7.55;4.57;;;27.80;99.90;;;;;;4979237;28;20055;-83
2023/09/08 11:22:17;;;;;;;7.28;4.30;;;27.90;99.90;;;;;;4980196;28;20464;-84
2023/09/08 11:24:44;;;;;;;6.68;4.45;;;28.00;99.90;;;;;;4976263;28;20042;-83
2023/09/08 11:27:13;;;;;;;12.70;4.22;;;28.00;99.90;;;;;;4957153;28;20042;-83
2023/09/08 11:29:42;;;;;;;8.75;4.10;;;28.10;99.90;;;;;;4981643;28;20035;-84
2023/09/08 11:32:08;;;;;;;7.72;4.20;;;28.10;99.50;;;;;;4967146;28;20167;-84
2023/09/08 11:34:35;;;;;;;7.20;4.70;;;28.20;99.70;;;;;;4984662;28;20050;-84
2023/09/08 11:37:17;;;;;;;8.68;4.40;;;28.20;99.50;;;;;;4963560;28;20102;-84
2023/09/08 11:39:46;;;;;;;8.38;4.45;;;28.30;99.40;;;;;;4963155;28;20050;-84
2023/09/08 11:42:14;;;;;;;8.65;4.53;;;28.40;98.80;;;;;;4982173;28;20399;-83
2023/09/08 11:44:41;;;;;;;7.85;4.25;;;28.50;98.70;;;;;;4983178;28;20494;-83
2023/09/08 11:47:09;;;;;;;8.15;4.53;;;28.60;98.60;;;;;;4976812;28;20038;-83
2023/09/08 11:50:00;;;;;;;6.75;4.20;;;28.70;98.90;;;;;;4966258;28;20038;-83
2023/09/08 11:52:25;;;;;;;7.18;3.65;;;28.80;98.70;;;;;;4973425;28;20062;-83
2023/09/08 11:54:52;;;;;;;5.68;3.97;;;28.90;97.80;;;;;;4965764;28;20104;-83
2023/09/08 11:57:18;;;;;;;5.70;3.80;;;29.00;97.30;;;;;;4981219;28;20049;-83
2023/09/08 11:59:47;;;;;;;5.95;4.22;;;29.10;97.30;;;;;;4979113;28;20068;-83
2023/09/08 12:02:13;;;;;;;10.88;4.05;;;29.10;97.50;;;;;;4964108;28;20050;-83
2023/09/08 12:04:41;;;;;;;7.68;4.15;;;29.20;97.00;;;;;;4974103;28;20034;-83
2023/09/08 12:07:07;;;;;;;5.93;4.03;;;29.30;96.70;;;;;;4960467;28;20039;-84
2023/09/08 12:09:32;;;;;;;8.65;4.30;;;29.30;96.60;;;;;;4976180;28;20034;-87
2023/09/08 12:12:03;;;;;;;7.90;4.05;;;29.40;97.10;;;;;;4975854;28;20053;-85
2023/09/08 12:14:28;;;;;;;7.93;4.20;;;29.40;96.30;;;;;;4979132;28;20042;-86
2023/09/08 12:17:08;;;;;;;6.80;4.30;;;29.40;96.20;;;;;;4978693;28;20493;-86
2023/09/08 12:19:37;;;;;;;7.15;4.22;;;29.50;96.50;;;;;;4974826;28;20093;-86
2023/09/08 12:22:04;;;;;;;8.07;3.97;;;29.50;96.30;;;;;;4977368;28;20158;-85
2023/09/08 12:24:50;;;;;;;5.93;3.85;;;29.60;96.20;;;;;;4959863;28;20046;-85
2023/09/08 12:27:19;;;;;;;7.78;3.90;;;29.60;95.90;;;;;;4985889;28;20054;-85
2023/09/08 12:30:01;;;;;;;8.68;3.92;;;29.60;96.50;;;;;;4984182;28;20042;-86
2023/09/08 12:32:30;;;;;;;9.50;4.18;;;29.70;96.70;;;;;;4975645;28;20038;-85
2023/09/08 12:34:56;;;;;;;7.80;4.28;;;29.80;96.30;;;;;;4970801;28;20058;-86
2023/09/08 12:37:23;;;;;;;8.60;4.40;;;29.80;96.00;;;;;;4957058;28;20054;-86